27 mai 2022

Temps Code Temps Temp. Vue Base cloud Vent METAR/SPECI
1:25 pm
V
57 °F 6¼ mi+ - 270° 270° 16 kt METAR EHGG 271125Z AUTO 27016KT 240V330 9999 SCT032 SCT043 14/06 Q1019 NOSIG
12:55 pm
V
57 °F 6¼ mi+ 3.400 ft 300° 300° 14 kt METAR EHGG 271055Z AUTO 30014KT 250V330 9999 BKN034 BKN040 OVC044 14/06 Q1018 NOSIG
12:25 pm
V
57 °F 6¼ mi+ 3.600 ft 280° 280° 14 - 24 kt METAR EHGG 271025Z AUTO 28014G24KT 240V340 9999 BKN036 BKN044 14/06 Q1018 NOSIG
11:55 am
V
59 °F 6¼ mi+ 4.800 ft 270° 270° 14 kt METAR EHGG 270955Z AUTO 27014KT 230V320 9999 SCT035 SCT043 BKN048 15/06 Q1018 NOSIG
11:25 am
V
57 °F 6¼ mi+ 3.400 ft 270° 270° 14 kt METAR EHGG 270925Z AUTO 27014KT 240V310 9999 BKN034 BKN044 14/05 Q1018 NOSIG
10:55 am
V
57 °F 6¼ mi+ 3.900 ft 270° 270° 15 kt METAR EHGG 270855Z AUTO 27015KT 240V310 9999 SCT034 BKN039 BKN044 14/05 Q1018 NOSIG
10:25 am
V
57 °F 6¼ mi+ 4.600 ft 260° 260° 14 kt METAR EHGG 270825Z AUTO 26014KT 230V300 9999 FEW034 BKN046 14/06 Q1017 NOSIG
9:55 am
V
57 °F 6¼ mi+ - 270° 270° 13 kt METAR EHGG 270755Z AUTO 27013KT 230V320 9999 SCT037 SCT045 14/06 Q1018 NOSIG
9:25 am
V
55 °F 6¼ mi+ 4.100 ft 290° 290° 15 - 26 kt METAR EHGG 270725Z AUTO 29015G26KT 250V320 9999 SCT036 BKN041 BKN046 13/05 Q1018 NOSIG
8:55 am
V
55 °F 6¼ mi+ - 280° 280° 14 kt METAR EHGG 270655Z AUTO 28014KT 240V330 9999 FEW035 13/05 Q1017 NOSIG
8:25 am
V
55 °F 6¼ mi+ - 280° 280° 11 kt METAR EHGG 270625Z AUTO 28011KT 240V320 9999 NSC 13/08 Q1017 NOSIG
7:55 am
V
54 °F 6¼ mi+ - 260° 260° 8 kt METAR EHGG 270555Z AUTO 26008KT 230V300 9999 NSC 12/08 Q1017 NOSIG
7:25 am
V
54 °F 6¼ mi+ - 270° 270° 6 kt METAR EHGG 270525Z AUTO 27006KT 240V300 9999 FEW038 12/09 Q1017 NOSIG
6:55 am
V
54 °F 6¼ mi+ - 250° 250° 8 kt METAR EHGG 270455Z AUTO 25008KT 220V300 9999 NSC 12/10 Q1017 NOSIG
6:25 am
V
52 °F 6¼ mi+ - 250° 250° 5 kt METAR EHGG 270425Z AUTO 25005KT 230V290 9999 FEW028 SCT043 11/09 Q1017 NOSIG
5:55 am
V
50 °F 6¼ mi+ - 250° 250° 6 kt METAR EHGG 270355Z AUTO 25006KT 9999 NSC 10/09 Q1017 NOSIG
5:25 am
V
48 °F 6¼ mi+ - 250° 250° 4 kt METAR EHGG 270325Z AUTO 25004KT 9999 NSC 09/08 Q1016
4:55 am
V
52 °F 6¼ mi+ - 250° 250° 5 kt METAR EHGG 270255Z AUTO 25005KT 9999 NSC 11/09 Q1017
4:25 am
V
52 °F 6¼ mi+ - 270° 270° 5 kt METAR EHGG 270225Z AUTO 27005KT 240V300 9999 FEW047 11/10 Q1017
3:55 am
V
54 °F 6¼ mi+ - 280° 280° 6 kt METAR EHGG 270155Z AUTO 28006KT 250V330 9999 FEW047 12/11 Q1016
3:25 am
V
55 °F 6¼ mi+ - 280° 280° 6 kt METAR EHGG 270125Z AUTO 28006KT 250V320 9999 NSC 13/11 Q1016
2:55 am
V
55 °F 6¼ mi+ - 290° 290° 8 kt METAR EHGG 270055Z AUTO 29008KT 250V320 9999 SCT045 13/12 Q1016
2:25 am
M
57 °F 6¼ mi+ 1.400 ft 270° 270° 8 kt METAR EHGG 270025Z AUTO 27008KT 230V300 9999 FEW010/// SCT012/// BKN014/// 14/13 Q1016
1:55 am
M
57 °F 6¼ mi+ 1.000 ft 270° 270° 8 kt METAR EHGG 262355Z AUTO 27008KT 240V310 9999 -RA FEW007 SCT008 BKN010 14/13 Q1016
1:25 am
M
57 °F 3⅛ mi 1.000 ft 270° 270° 12 kt METAR EHGG 262325Z AUTO 27012KT 230V310 5000 SHRA FEW001 SCT008 BKN010 FEW015CB 14/13 Q1016
12:55 am
M
57 °F 5⅝ mi 1.500 ft 250° 250° 10 kt METAR EHGG 262255Z AUTO 25010KT 210V290 9000 -SHRA FEW011 BKN015CB BKN018 14/13 Q1016 REDZ
12:25 am
M
57 °F 6¼ mi+ 1.500 ft 250° 250° 11 kt METAR EHGG 262225Z AUTO 25011KT 200V270 9999 SCT012/// BKN015/// OVC022/// 14/13 Q1016

26 mai 2022

Temps Code Temps Temp. Vue Base cloud Vent METAR/SPECI
11:55 pm
M
57 °F 6¼ mi+ 1.400 ft 240° 240° 10 kt METAR EHGG 262155Z AUTO 24010KT 210V290 9999 FEW012 BKN014 BKN025 14/13 Q1016
11:25 pm
M
57 °F 6¼ mi+ 1.600 ft 240° 240° 11 kt METAR EHGG 262125Z AUTO 24011KT 210V270 9999 SCT013 BKN016 BKN027 14/13 Q1016
10:55 pm
M
59 °F 6¼ mi+ 1.500 ft 250° 250° 11 kt METAR EHGG 262055Z AUTO 25011KT 220V280 9999 FEW012 BKN015 BKN028 15/13 Q1016 TEMPO 7000 -RADZ BKN016
10:25 pm
M
57 °F 6¼ mi+ 1.600 ft 250° 250° 11 kt METAR EHGG 262025Z AUTO 25011KT 210V270 9999 -RA SCT014 FEW015CB OVC016 14/13 Q1016 TEMPO 7000 -RADZ BKN014
9:55 pm
M
57 °F 6¼ mi+ 1.500 ft 240° 240° 14 kt METAR EHGG 261955Z AUTO 24014KT 210V270 9999 FEW012 BKN015 BKN019 14/13 Q1016 TEMPO 7000 -RADZ BKN014
9:25 pm
M
57 °F 6¼ mi+ 1.600 ft 240° 240° 13 kt METAR EHGG 261925Z AUTO 24013KT 200V270 9999 -RA FEW011 SCT014 OVC016 14/13 Q1016 NOSIG
8:55 pm
M
57 °F 5 mi 1.700 ft 240° 240° 10 kt METAR EHGG 261855Z AUTO 24010KT 210V270 8000 FEW006/// SCT011/// OVC017/// 14/13 Q1016 REDZ NOSIG
8:25 pm
I
57 °F 2⅝ mi 1.400 ft 250° 250° 12 kt METAR EHGG 261825Z AUTO 25012KT 210V270 4200 +DZ FEW007 SCT012 BKN014 14/13 Q1016 NOSIG
7:55 pm
M
57 °F 6¼ mi+ 2.000 ft 230° 230° 10 kt METAR EHGG 261755Z AUTO 23010KT 210V270 9999 DZ FEW017 OVC020 14/12 Q1017 NOSIG
7:25 pm
M
59 °F 6¼ mi+ 2.100 ft 250° 250° 12 kt METAR EHGG 261725Z AUTO 25012KT 210V290 9999 BKN021 OVC025 15/11 Q1017 NOSIG
6:55 pm
M
59 °F 6¼ mi+ 2.300 ft 250° 250° 9 kt METAR EHGG 261655Z AUTO 25009KT 200V280 9999 BKN023 OVC027 15/10 Q1017 NOSIG
6:25 pm
M
61 °F 6¼ mi+ 2.900 ft 250° 250° 11 - 21 kt METAR EHGG 261625Z AUTO 25011G21KT 210V290 9999 FEW026 BKN029 BKN037 16/10 Q1017 NOSIG
5:55 pm
V
61 °F 6¼ mi+ 3.000 ft 250° 250° 13 kt METAR EHGG 261555Z AUTO 25013KT 210V280 9999 SCT027 BKN030 OVC036 16/10 Q1018 NOSIG
5:25 pm
V
61 °F 6¼ mi+ 3.400 ft 250° 250° 15 kt METAR EHGG 261525Z AUTO 25015KT 220V290 9999 SCT029 OVC034 16/10 Q1018 NOSIG
4:55 pm
V
63 °F 6¼ mi+ - 240° 240° 16 kt METAR EHGG 261455Z AUTO 24016KT 200V290 9999 FEW031 SCT036 17/10 Q1018 TEMPO 25015G25KT
4:25 pm
V
63 °F 6¼ mi+ 3.500 ft 240° 240° 14 kt METAR EHGG 261425Z AUTO 24014KT 200V280 9999 FEW030 BKN035 OVC042 17/10 Q1018 TEMPO 25015G25KT
3:55 pm
M
63 °F 6¼ mi+ 2.900 ft 250° 250° 15 kt METAR EHGG 261355Z AUTO 25015KT 220V280 9999 BKN029 BKN032 OVC043 17/11 Q1018 TEMPO 25015G25KT
3:25 pm
V
63 °F 6¼ mi+ 3.700 ft 240° 240° 14 kt METAR EHGG 261325Z AUTO 24014KT 210V280 9999 FEW029 SCT032 BKN037 17/11 Q1018 TEMPO 25015G25KT
2:55 pm
V
64 °F 6¼ mi+ 4.500 ft 250° 250° 14 kt METAR EHGG 261255Z AUTO 25014KT 210V290 9999 FEW032 SCT038 BKN045 18/11 Q1018 TEMPO 25015G25KT
2:25 pm
V
64 °F 6¼ mi+ 3.300 ft 260° 260° 15 kt METAR EHGG 261225Z AUTO 26015KT 230V290 9999 BKN033 BKN044 OVC049 18/10 Q1018 TEMPO 25015G25KT
1:55 pm
V
66 °F 6¼ mi+ 3.600 ft 250° 250° 13 kt METAR EHGG 261155Z AUTO 25013KT 210V300 9999 BKN036 BKN041 BKN049 19/10 Q1018 TEMPO 25015G25KT
1:25 pm
V
64 °F 6¼ mi+ 3.400 ft 260° 260° 15 kt METAR EHGG 261125Z AUTO 26015KT 220V290 9999 OVC034 18/09 Q1018 NOSIG
12:55 pm
V
64 °F 6¼ mi+ 4.400 ft 250° 250° 15 kt METAR EHGG 261055Z AUTO 25015KT 210V300 9999 FEW034 SCT039 BKN044 18/10 Q1018 NOSIG
12:25 pm
V
64 °F 6¼ mi+ 4.100 ft 260° 260° 15 kt METAR EHGG 261025Z AUTO 26015KT 220V300 9999 FEW036 BKN041 BKN047 18/09 Q1018 NOSIG
11:55 am
V
63 °F 6¼ mi+ - 270° 270° 15 kt METAR EHGG 260955Z AUTO 27015KT 230V300 9999 FEW035 17/08 Q1018 NOSIG
11:25 am
V
63 °F 6¼ mi+ - 260° 260° 15 kt METAR EHGG 260925Z AUTO 26015KT 220V300 9999 FEW032 SCT041 17/09 Q1018 NOSIG
10:55 am
V
63 °F 6¼ mi+ - 260° 260° 13 kt METAR EHGG 260855Z AUTO 26013KT 220V310 9999 NSC 17/10 Q1018 NOSIG
10:25 am
V
61 °F 6¼ mi+ - 260° 260° 13 kt METAR EHGG 260825Z AUTO 26013KT 220V300 9999 FEW025 16/10 Q1018 NOSIG
9:55 am
V
61 °F 6¼ mi+ - 260° 260° 11 kt METAR EHGG 260755Z AUTO 26011KT 220V290 9999 FEW024 SCT032 16/10 Q1017 NOSIG
9:25 am
V
59 °F 6¼ mi+ 3.000 ft 260° 260° 10 kt METAR EHGG 260725Z AUTO 26010KT 220V290 9999 SCT022 BKN030 BKN037 15/10 Q1017 NOSIG
8:55 am
V
61 °F 6¼ mi+ - 260° 260° 11 kt METAR EHGG 260655Z AUTO 26011KT 220V300 9999 FEW023 16/10 Q1017 NOSIG
8:25 am
V
59 °F 6¼ mi+ - 260° 260° 9 kt METAR EHGG 260625Z AUTO 26009KT 220V300 9999 NCD 15/11 Q1016 NOSIG
7:55 am
V
57 °F 6¼ mi+ - 250° 250° 8 kt METAR EHGG 260555Z AUTO 25008KT 220V280 9999 NCD 14/11 Q1016 NOSIG
7:25 am
V
57 °F 6¼ mi+ - 260° 260° 8 kt METAR EHGG 260525Z AUTO 26008KT 220V290 9999 NSC 14/11 Q1016 NOSIG
6:55 am
V
55 °F 6¼ mi+ - 250° 250° 5 kt METAR EHGG 260455Z AUTO 25005KT 9999 NSC 13/11 Q1016 NOSIG
6:25 am
V
55 °F 6¼ mi+ - 250° 250° 7 kt METAR EHGG 260425Z AUTO 25007KT 210V280 9999 NSC 13/10 Q1015 NOSIG
5:55 am
V
55 °F 6¼ mi+ 3.800 ft 250° 250° 7 kt METAR EHGG 260355Z AUTO 25007KT 220V280 9999 BKN038 13/11 Q1015
5:25 am
V
55 °F 6¼ mi+ - 240° 240° 7 kt METAR EHGG 260325Z AUTO 24007KT 9999 NSC 13/12 Q1015
4:55 am
V
55 °F 6¼ mi+ 4.400 ft 240° 240° 8 kt METAR EHGG 260255Z AUTO 24008KT 210V270 9999 SCT040 BKN044 13/12 Q1015
4:25 am
V
55 °F 5⅝ mi 4.600 ft 240° 240° 9 kt METAR EHGG 260225Z AUTO 24009KT 210V270 9000 SCT040 BKN046 13/12 Q1014
3:55 am
V
55 °F 5⅝ mi 4.400 ft 240° 240° 8 kt METAR EHGG 260155Z AUTO 24008KT 210V270 9000 SCT039 BKN044 BKN048 13/12 Q1014
3:25 am
M
57 °F 5⅝ mi 1.000 ft 240° 240° 10 kt METAR EHGG 260125Z AUTO 24010KT 220V280 9000 FEW008 BKN010 14/13 Q1014
2:55 am
M
57 °F 6¼ mi+ 1.000 ft 240° 240° 8 kt METAR EHGG 260055Z AUTO 24008KT 210V270 9999 FEW009 BKN010 BKN015 14/13 Q1014
2:25 am
I
55 °F 6¼ mi+ 900 ft 230° 230° 8 kt METAR EHGG 260025Z AUTO 23008KT 210V270 9999 FEW006/// SCT008/// BKN009/// 13/13 Q1014
1:55 am
M
55 °F 5⅝ mi 1.300 ft 220° 220° 7 kt METAR EHGG 252355Z AUTO 22007KT 9000 FEW006 SCT010 BKN013 13/13 Q1014
1:25 am
M
55 °F 6¼ mi+ 1.100 ft 220° 220° 10 kt METAR EHGG 252325Z AUTO 22010KT 190V250 9999 FEW008 SCT009 BKN011 13/13 Q1013
12:55 am
M
55 °F 6¼ mi+ 1.000 ft 220° 220° 10 kt METAR EHGG 252255Z AUTO 22010KT 190V250 9999 FEW007 SCT008 BKN010 13/12 Q1013
12:25 am
M
55 °F 6¼ mi+ 1.600 ft 220° 220° 11 kt METAR EHGG 252225Z AUTO 22011KT 9999 DZRA FEW007 SCT012 FEW015CB BKN016 13/12 Q1013

25 mai 2022

Temps Code Temps Temp. Vue Base cloud Vent METAR/SPECI
11:55 pm
M
55 °F 6¼ mi+ 1.600 ft 220° 220° 12 kt METAR EHGG 252155Z AUTO 22012KT 190V250 9999 RA FEW009 SCT010 OVC016 13/12 Q1013
11:25 pm
M
55 °F 6¼ mi+ 1.000 ft 210° 210° 11 kt METAR EHGG 252125Z AUTO 21011KT 190V250 9999 FEW007 SCT008 BKN010 13/12 Q1013
10:55 pm
I
55 °F 6¼ mi+ 800 ft 220° 220° 13 kt METAR EHGG 252055Z AUTO 22013KT 190V250 9999 -RADZ SCT006 BKN008 OVC011 13/12 Q1013 TEMPO BKN008
10:25 pm
I
55 °F 6¼ mi+ 900 ft 220° 220° 12 kt METAR EHGG 252025Z AUTO 22012KT 180V240 9999 FEW006 SCT008 BKN009 13/12 Q1013 TEMPO BKN012
9:55 pm
I
54 °F 6¼ mi+ 600 ft 220° 220° 14 kt METAR EHGG 251955Z AUTO 22014KT 9999 DZ FEW005 BKN006 BKN008 12/12 Q1013 TEMPO BKN012
9:25 pm
I
54 °F 2¼ mi 500 ft 210° 210° 11 kt METAR EHGG 251925Z AUTO 21011KT 3700 +DZ FEW004/// BKN005/// BKN006/// 12/12 Q1013 RERADZ BECMG BKN012 TEMPO 7000
8:55 pm
I
54 °F 2¼ mi 900 ft 210° 210° 12 kt METAR EHGG 251855Z AUTO 21012KT 180V240 3600 +DZ FEW005 SCT007 BKN009 12/12 Q1013 BECMG BKN012 TEMPO 7000
8:25 pm
M
55 °F 6¼ mi+ 1.600 ft 220° 220° 15 kt METAR EHGG 251825Z AUTO 22015KT 190V250 9999 -DZ FEW008 SCT014 OVC016 13/12 Q1013 REDZ BECMG BKN014 TEMPO 4000
7:55 pm
I
57 °F 2¾ mi 3.200 ft 230° 230° 19 - 31 kt METAR EHGG 251755Z AUTO 23019G31KT 200V260 4400 -RA FEW018 SCT021 BKN032 14/10 Q1012 TEMPO 7000 BKN014
7:25 pm
M
59 °F 6¼ mi+ 2.900 ft 240° 240° 20 kt METAR EHGG 251725Z AUTO 24020KT 200V270 9999 BKN029 BKN033 BKN040 15/09 Q1012 BECMG 7000 -RADZ TEMPO 4000 BKN014
6:55 pm
V
61 °F 6¼ mi+ - 240° 240° 19 kt METAR EHGG 251655Z AUTO 24019KT 200V270 9999 FEW038 16/08 Q1012 BECMG 7000 -RADZ TEMPO 4000 BKN014
6:25 pm
V
61 °F 6¼ mi+ - 240° 240° 17 - 28 kt METAR EHGG 251625Z AUTO 24017G28KT 200V270 9999 NSC 16/08 Q1012 NOSIG
5:55 pm
V
63 °F 6¼ mi+ - 240° 240° 17 kt METAR EHGG 251555Z AUTO 24017KT 220V280 9999 FEW038 17/08 Q1012 NOSIG
5:25 pm
V
61 °F 6¼ mi+ 4.100 ft 240° 240° 19 kt METAR EHGG 251525Z AUTO 24019KT 190V280 9999 BKN041 OVC046 16/07 Q1012 NOSIG
4:55 pm
V
63 °F 6¼ mi+ - 240° 240° 18 kt METAR EHGG 251455Z AUTO 24018KT 210V280 9999 SCT040 SCT047 17/08 Q1012 NOSIG
4:25 pm
V
63 °F 6¼ mi+ 4.500 ft 240° 240° 17 kt METAR EHGG 251425Z AUTO 24017KT 210V280 9999 SCT040/// BKN045/// 17/08 Q1012 NOSIG
3:55 pm
V
63 °F 6¼ mi+ - 240° 240° 14 kt METAR EHGG 251355Z AUTO 24014KT 200V280 9999 FEW043 17/07 Q1012 NOSIG
3:25 pm
V
64 °F 6¼ mi+ - 240° 240° 18 - 31 kt METAR EHGG 251325Z AUTO 24018G31KT 200V270 9999 FEW045 18/07 Q1012 NOSIG
2:55 pm
V
63 °F 6¼ mi+ 4.200 ft 220° 220° 13 kt METAR EHGG 251255Z AUTO 22013KT 180V250 9999 FEW031 SCT036 BKN042 17/10 Q1012 NOSIG
2:25 pm
V
61 °F 6¼ mi+ - 210° 210° 15 kt METAR EHGG 251225Z AUTO 21015KT 180V240 9999 NSC 16/10 Q1012 NOSIG
1:55 pm
V
63 °F 6¼ mi+ 3.500 ft 240° 240° 17 kt METAR EHGG 251155Z AUTO 24017KT 210V270 9999 BKN035 BKN041 17/09 Q1012 TEMPO 6000 SHRA
Données plus anciennes

Télécharge notre application

Un accès facile à toute la météo aéronautique sur ton téléphone portable et ta tablette.
Avec de nombreuses fonctionnalités non disponibles sur le site Web, comme la prise en charge hors ligne et une liste personnelle d'aéroports.

Nous et des tiers suivons ton comportement sur Internet sur notre site Web à l'aide de cookies. Si tu continues, nous supposons que tu acceptes notre politique en matière de cookies. Apprendre plus